Donnie Sonier — WDF9285 — position and weather

sailwx.info

Track history (hours):
 
Tides and Currents Weather Stations Pressure Air Temp Water Temp Dewpoint Dewpoint Depression Visibility Wind Speed Wind Dir Waves Ship Positions

Donnie Sonier

Owner: LeBeouf Bros. Towing, LLC, Houma, LA. More information available from US FCC via Universal Licensing System and Coast Guard Vessel Documentation Center.

Last reported at 2014-Oct-30 13:32 UTC. Time now 2014-Oct-31 20:01 UTC.
Position N 29°44' W 095°03'.

Length 22 m.

Type: Tug. MMSI: 367503580.

Date/timePositionNaut miles runAvg speedWind from/ knotsBaromVisibWave heightAir tempDewpointWater temp
2014-Oct-30 13:32N 29°44' W 095°03'1 0.9
2014-Oct-30 12:33N 29°45' W 095°04'3 2.9
2014-Oct-30 11:33N 29°48' W 095°04'2 1.7
2014-Oct-30 10:21N 29°46' W 095°05'  
2014-Oct-24 15:23N 29°46' W 095°05'4 0.9
2014-Oct-24 11:30N 29°44' W 095°02'5 5.1
2014-Oct-24 10:26N 29°40' W 094°58'5 5.5
2014-Oct-24 09:33N 29°35' W 094°56'6 5.7
2014-Oct-24 08:33N 29°30' W 094°52'  
Track history (hours):
 
Tides and Currents Weather Stations Pressure Air Temp Water Temp Dewpoint Dewpoint Depression Visibility Wind Speed Wind Dir Waves Ship Positions

Donnie Sonier

Owner: LeBeouf Bros. Towing, LLC, Houma, LA. More information available from US FCC via Universal Licensing System and Coast Guard Vessel Documentation Center.

Last reported at 2014-Oct-30 13:32 UTC. Time now 2014-Oct-31 20:01 UTC.
Position N 29°44' W 095°03'.

Length 22 m.

Type: Tug. MMSI: 367503580.

Date/timePositionNaut miles runAvg speedWind from/ knotsBaromVisibWave heightAir tempDewpointWater temp
2014-Oct-30 13:32N 29°44' W 095°03'1 0.9
2014-Oct-30 12:33N 29°45' W 095°04'3 2.9
2014-Oct-30 11:33N 29°48' W 095°04'2 1.7
2014-Oct-30 10:21N 29°46' W 095°05'  
2014-Oct-24 15:23N 29°46' W 095°05'4 0.9
2014-Oct-24 11:30N 29°44' W 095°02'5 5.1
2014-Oct-24 10:26N 29°40' W 094°58'5 5.5
2014-Oct-24 09:33N 29°35' W 094°56'6 5.7
2014-Oct-24 08:33N 29°30' W 094°52'  

Dump ship's entire track history